createdAt,value
2019-01-28T00:00:35.276Z,3.30
2019-01-28T00:03:05.397Z,2.22
2019-01-28T00:05:33.724Z,2.57
2019-01-28T00:08:02.079Z,2.37
2019-01-28T00:10:31.431Z,3.40
2019-01-28T00:13:00.695Z,3.07
2019-01-28T00:15:29.040Z,3.97
2019-01-28T00:17:57.428Z,1.90
2019-01-28T00:20:25.747Z,3.33
2019-01-28T00:22:54.086Z,2.70
2019-01-28T00:25:22.366Z,2.72
2019-01-28T00:27:50.776Z,3.00
2019-01-28T00:30:22.170Z,4.30
2019-01-28T00:32:52.494Z,2.53
2019-01-28T00:35:21.850Z,1.80
2019-01-28T00:37:51.371Z,3.80
2019-01-28T00:40:19.603Z,2.80
2019-01-28T00:42:48.044Z,1.90
2019-01-28T00:45:16.498Z,2.70
2019-01-28T00:47:44.837Z,3.20
2019-01-28T00:50:13.480Z,3.00
2019-01-28T00:52:41.938Z,2.33
2019-01-28T00:55:13.051Z,2.80
2019-01-28T00:57:41.393Z,3.17
2019-01-28T01:00:15.894Z,3.80
2019-01-28T01:02:44.250Z,3.27
2019-01-28T01:05:12.622Z,1.80
2019-01-28T01:07:40.975Z,2.50
2019-01-28T01:10:11.324Z,1.67
2019-01-28T01:12:39.786Z,2.80
2019-01-28T01:15:11.146Z,2.87
2019-01-28T01:17:39.561Z,2.97
2019-01-28T01:20:11.058Z,2.70
2019-01-28T01:22:39.426Z,1.87
2019-01-28T01:25:08.833Z,3.60
2019-01-28T01:27:37.128Z,3.10
2019-01-28T01:30:08.748Z,2.27
2019-01-28T01:32:37.067Z,4.00
2019-01-28T01:35:07.185Z,2.40
2019-01-28T01:37:35.553Z,2.20
2019-01-28T01:40:07.999Z,2.08
2019-01-28T01:42:36.293Z,2.90
2019-01-28T01:45:08.081Z,1.72
2019-01-28T01:47:36.420Z,1.63
2019-01-28T01:50:07.348Z,1.90
2019-01-28T01:52:35.702Z,2.00
2019-01-28T01:55:07.265Z,3.57
2019-01-28T01:57:35.600Z,2.37
2019-01-28T02:00:07.823Z,2.50
2019-01-28T02:02:36.172Z,1.10
2019-01-28T02:05:06.450Z,2.12
2019-01-28T02:07:34.757Z,2.20
2019-01-28T02:10:03.121Z,2.07
2019-01-28T02:12:31.646Z,3.10
2019-01-28T02:15:00.196Z,3.20
2019-01-28T02:17:28.671Z,3.20
2019-01-28T02:19:57.000Z,3.20
2019-01-28T02:22:25.408Z,1.75
2019-01-28T02:24:53.803Z,2.30
2019-01-28T02:27:22.116Z,1.57
2019-01-28T02:29:50.430Z,1.90
2019-01-28T02:32:18.698Z,2.05
2019-01-28T02:34:47.120Z,2.63
2019-01-28T02:37:15.486Z,1.20
2019-01-28T02:39:43.776Z,2.27
2019-01-28T02:42:12.147Z,2.13
2019-01-28T02:44:40.597Z,2.23
2019-01-28T02:47:08.940Z,2.00
2019-01-28T02:49:37.224Z,1.70
2019-01-28T02:52:05.493Z,2.20
2019-01-28T02:54:33.857Z,1.90
2019-01-28T02:57:02.147Z,1.90
2019-01-28T02:59:30.479Z,1.77
2019-01-28T03:01:59.178Z,3.20
2019-01-28T03:04:27.567Z,2.30
2019-01-28T03:06:55.860Z,2.45
2019-01-28T03:09:24.238Z,1.90
2019-01-28T03:11:52.659Z,1.70
2019-01-28T03:14:21.080Z,2.35
2019-01-28T03:16:50.781Z,2.43
2019-01-28T03:19:19.046Z,2.00
2019-01-28T03:21:47.486Z,4.73
2019-01-28T03:24:15.870Z,4.30
2019-01-28T03:26:44.125Z,1.67
2019-01-28T03:29:12.727Z,3.40
2019-01-28T03:31:41.131Z,3.13
2019-01-28T03:34:09.467Z,3.00
2019-01-28T03:36:37.818Z,2.70
2019-01-28T03:39:08.636Z,2.40
2019-01-28T03:41:37.031Z,4.07
2019-01-28T03:44:05.467Z,3.53
2019-01-28T03:46:33.878Z,3.23
2019-01-28T03:49:02.140Z,2.47
2019-01-28T03:51:30.650Z,3.40
2019-01-28T03:53:59.024Z,2.97
2019-01-28T03:56:27.384Z,2.30
2019-01-28T03:58:55.643Z,2.10
2019-01-28T04:01:24.113Z,2.37
2019-01-28T04:03:52.378Z,3.77
2019-01-28T04:06:20.710Z,1.27
2019-01-28T04:08:49.072Z,2.40
2019-01-28T04:11:17.333Z,2.60
2019-01-28T04:13:45.673Z,2.27
2019-01-28T04:16:14.070Z,3.55
2019-01-28T04:18:42.535Z,3.70
2019-01-28T04:21:10.803Z,1.50
2019-01-28T04:23:39.215Z,3.90
2019-01-28T04:26:07.553Z,2.70
2019-01-28T04:28:35.887Z,2.83
2019-01-28T04:31:04.874Z,3.80
2019-01-28T04:33:33.211Z,2.93
2019-01-28T04:36:01.547Z,4.90
2019-01-28T04:38:29.904Z,3.83
2019-01-28T04:40:58.336Z,2.80
2019-01-28T04:43:26.661Z,1.20
2019-01-28T04:45:54.984Z,4.50
2019-01-28T04:48:23.399Z,3.83
2019-01-28T04:50:51.854Z,4.12
2019-01-28T04:53:20.414Z,2.30
2019-01-28T04:55:48.738Z,2.97
2019-01-28T04:58:17.215Z,2.95
2019-01-28T05:00:45.554Z,2.67
2019-01-28T05:03:13.848Z,3.60
2019-01-28T05:05:42.224Z,4.17
2019-01-28T05:08:10.565Z,2.60
2019-01-28T05:10:39.124Z,2.67
2019-01-28T05:13:08.663Z,2.63
2019-01-28T05:15:37.210Z,2.73
2019-01-28T05:18:05.633Z,3.83
2019-01-28T05:20:34.271Z,2.70
2019-01-28T05:23:02.602Z,2.27
2019-01-28T05:25:30.944Z,2.13
2019-01-28T05:27:59.225Z,2.57
2019-01-28T05:30:27.703Z,2.83
2019-01-28T05:32:56.089Z,2.20
2019-01-28T05:35:24.359Z,0.73
2019-01-28T05:37:52.657Z,1.67
2019-01-28T05:40:25.487Z,1.50
2019-01-28T05:42:53.743Z,2.63
2019-01-28T05:45:24.114Z,2.10
2019-01-28T05:47:52.433Z,1.73
2019-01-28T05:50:20.880Z,2.12
2019-01-28T05:52:49.287Z,1.97
2019-01-28T05:55:19.035Z,2.10
2019-01-28T05:57:47.539Z,1.83
2019-01-28T06:00:22.350Z,2.37
2019-01-28T06:02:50.621Z,1.80
2019-01-28T06:05:18.935Z,2.17
2019-01-28T06:07:47.297Z,1.57
2019-01-28T06:10:16.747Z,1.42
2019-01-28T06:12:45.272Z,1.30
2019-01-28T06:15:19.179Z,1.00
2019-01-28T06:17:47.501Z,1.53
2019-01-28T06:20:24.358Z,1.47
2019-01-28T06:22:53.744Z,1.40
2019-01-28T06:25:22.322Z,1.67
2019-01-28T06:27:50.713Z,1.55
2019-01-28T06:30:27.459Z,1.73
2019-01-28T06:32:55.786Z,2.47
2019-01-28T06:35:24.129Z,2.43
2019-01-28T06:37:52.438Z,3.10
2019-01-28T06:40:23.703Z,2.73
2019-01-28T06:42:52.219Z,2.83
2019-01-28T06:45:20.611Z,2.70
2019-01-28T06:47:49.027Z,2.40
2019-01-28T06:50:20.434Z,2.60
2019-01-28T06:52:48.825Z,3.20
2019-01-28T06:55:17.201Z,3.50
2019-01-28T06:57:45.693Z,2.33
2019-01-28T07:00:20.432Z,3.08
2019-01-28T07:02:48.833Z,3.50
2019-01-28T07:05:17.154Z,3.30
2019-01-28T07:07:45.612Z,3.50
2019-01-28T07:10:14.156Z,3.50
2019-01-28T07:12:42.558Z,4.20
2019-01-28T07:15:13.431Z,4.25
2019-01-28T07:17:41.760Z,3.37
2019-01-28T07:20:16.634Z,3.50
2019-01-28T07:22:44.983Z,3.80
2019-01-28T07:25:13.471Z,4.50
2019-01-28T07:27:41.892Z,3.20
2019-01-28T07:30:13.711Z,3.33
2019-01-28T07:32:42.065Z,4.50
2019-01-28T07:35:12.739Z,5.13
2019-01-28T07:37:41.121Z,4.00
2019-01-28T07:40:12.826Z,3.50
2019-01-28T07:42:41.264Z,3.23
2019-01-28T07:45:15.801Z,5.17
2019-01-28T07:47:44.230Z,4.10
2019-01-28T07:50:12.596Z,3.12
2019-01-28T07:52:40.973Z,3.53
2019-01-28T07:55:09.959Z,4.90
2019-01-28T07:57:38.329Z,3.23
2019-01-28T08:00:10.002Z,3.50
2019-01-28T08:02:38.270Z,3.67
2019-01-28T08:05:10.054Z,3.10
2019-01-28T08:07:38.449Z,3.90
2019-01-28T08:10:09.960Z,2.60
2019-01-28T08:12:38.226Z,3.53
2019-01-28T08:15:09.921Z,5.40
2019-01-28T08:17:38.200Z,4.23
2019-01-28T08:20:15.823Z,4.47
2019-01-28T08:22:44.195Z,5.70
2019-01-28T08:25:15.857Z,5.57
2019-01-28T08:27:44.337Z,5.27
2019-01-28T08:30:19.044Z,5.35
2019-01-28T08:32:47.417Z,5.70
2019-01-28T08:35:16.005Z,5.20
2019-01-28T08:37:44.387Z,4.80
2019-01-28T08:40:15.891Z,5.23
2019-01-28T08:42:44.374Z,5.40
2019-01-28T08:45:13.556Z,5.30
2019-01-28T08:47:41.811Z,4.90
2019-01-28T08:50:16.475Z,4.22
2019-01-28T08:52:44.973Z,4.43
2019-01-28T08:55:16.140Z,3.90
2019-01-28T08:57:44.591Z,4.90
2019-01-28T09:00:16.487Z,3.93
2019-01-28T09:02:45.223Z,7.00
2019-01-28T09:05:16.142Z,4.72
2019-01-28T09:07:44.522Z,5.27
2019-01-28T09:10:16.160Z,5.80
2019-01-28T09:12:44.554Z,5.07
2019-01-28T09:15:24.496Z,4.83
2019-01-28T09:17:52.871Z,3.70
2019-01-28T09:20:24.462Z,3.93
2019-01-28T09:22:52.750Z,3.98
2019-01-28T09:25:21.145Z,3.70
2019-01-28T09:27:49.698Z,3.60
2019-01-28T09:30:21.446Z,3.57
2019-01-28T09:32:49.787Z,2.30
2019-01-28T09:35:18.200Z,2.27
2019-01-28T09:37:46.546Z,1.90
2019-01-28T09:40:18.327Z,1.30
2019-01-28T09:42:46.684Z,1.50
2019-01-28T09:45:18.422Z,1.10
2019-01-28T09:47:46.737Z,1.00
2019-01-28T09:50:16.399Z,2.85
2019-01-28T09:52:44.826Z,2.00
2019-01-28T09:55:14.255Z,0.93
2019-01-28T09:57:42.697Z,1.87
2019-01-28T10:00:29.576Z,1.10
2019-01-28T10:02:57.921Z,1.10
2019-01-28T10:05:26.271Z,1.23
2019-01-28T10:07:54.660Z,1.50
2019-01-28T10:10:23.041Z,2.33
2019-01-28T10:12:51.365Z,1.70
2019-01-28T10:15:28.769Z,1.42
2019-01-28T10:17:55.947Z,1.43
2019-01-28T10:20:44.458Z,1.20
2019-01-28T10:23:09.288Z,1.30
2019-01-28T10:25:37.660Z,0.80
2019-01-28T10:28:06.208Z,1.43
2019-01-28T10:30:37.174Z,1.17
2019-01-28T10:33:06.746Z,1.50
2019-01-28T10:35:35.358Z,1.13
2019-01-28T10:38:05.703Z,0.97
2019-01-28T10:40:37.390Z,1.00
2019-01-28T10:43:06.811Z,0.90
2019-01-28T10:45:35.215Z,1.10
2019-01-28T10:48:05.798Z,0.98
2019-01-28T10:50:34.102Z,1.17
2019-01-28T10:53:02.363Z,1.20
2019-01-28T10:55:30.653Z,0.50
2019-01-28T10:57:58.938Z,1.30
2019-01-28T11:00:33.179Z,1.53
2019-01-28T11:03:01.527Z,1.35
2019-01-28T11:05:29.954Z,1.50
2019-01-28T11:07:58.385Z,1.47
2019-01-28T11:10:29.320Z,1.32
2019-01-28T11:12:57.792Z,0.83
2019-01-28T11:15:30.359Z,1.20
2019-01-28T11:18:01.845Z,0.80
2019-01-28T11:20:30.266Z,1.20
2019-01-28T11:22:58.698Z,0.70
2019-01-28T11:25:30.548Z,0.60
2019-01-28T11:27:59.026Z,0.50
2019-01-28T11:30:43.422Z,2.47
2019-01-28T11:33:11.899Z,0.40
2019-01-28T11:35:40.677Z,0.50
2019-01-28T11:38:09.134Z,0.68
2019-01-28T11:40:37.555Z,0.70
2019-01-28T11:43:05.962Z,0.57
2019-01-28T11:45:43.663Z,0.47
2019-01-28T11:48:12.130Z,0.50
2019-01-28T11:50:40.609Z,1.23
2019-01-28T11:53:09.022Z,1.27
2019-01-28T11:55:37.462Z,0.90
2019-01-28T11:58:05.904Z,1.27
2019-01-28T12:00:56.823Z,2.53
2019-01-28T12:03:25.261Z,1.83
2019-01-28T12:05:53.590Z,0.75
2019-01-28T12:08:21.850Z,0.53
2019-01-28T12:10:50.242Z,1.03
2019-01-28T12:13:18.511Z,0.60
2019-01-28T12:15:46.851Z,1.20
2019-01-28T12:18:15.285Z,0.60
2019-01-28T12:20:45.886Z,1.43
2019-01-28T12:23:13.793Z,1.17
2019-01-28T12:25:42.288Z,1.13
2019-01-28T12:28:10.498Z,1.30
2019-01-28T12:30:38.856Z,0.98
2019-01-28T12:33:07.321Z,1.80
2019-01-28T12:35:35.683Z,1.53
2019-01-28T12:38:04.963Z,0.95
2019-01-28T12:40:33.333Z,1.20
2019-01-28T12:43:01.647Z,1.07
2019-01-28T12:45:30.620Z,1.47
2019-01-28T12:47:58.993Z,1.00
2019-01-28T12:50:27.645Z,1.43
2019-01-28T12:52:55.918Z,0.77
2019-01-28T12:55:26.933Z,0.77
2019-01-28T12:57:55.395Z,1.20
2019-01-28T13:00:38.601Z,0.87
2019-01-28T13:03:07.226Z,1.20
2019-01-28T13:05:35.489Z,0.90
2019-01-28T13:08:04.894Z,1.17
2019-01-28T13:10:33.277Z,1.33
2019-01-28T13:13:01.606Z,1.67
2019-01-28T13:15:32.042Z,0.60
2019-01-28T13:18:00.409Z,1.47
2019-01-28T13:20:28.952Z,1.30
2019-01-28T13:22:57.451Z,1.80
2019-01-28T13:25:29.080Z,1.07
2019-01-28T13:27:57.360Z,1.20
2019-01-28T13:30:29.208Z,1.13
2019-01-28T13:32:57.651Z,0.57
2019-01-28T13:35:25.926Z,1.03
2019-01-28T13:37:54.351Z,1.07
2019-01-28T13:40:22.800Z,0.72
2019-01-28T13:42:51.076Z,1.30
2019-01-28T13:45:22.071Z,0.70
2019-01-28T13:47:51.390Z,1.35
2019-01-28T13:50:26.362Z,1.33
2019-01-28T13:52:55.288Z,1.00
2019-01-28T13:55:23.760Z,0.88
2019-01-28T13:57:52.611Z,1.27
2019-01-28T14:00:31.311Z,1.60
2019-01-28T14:02:59.873Z,1.30
2019-01-28T14:05:29.501Z,1.20
2019-01-28T14:07:58.853Z,1.10
2019-01-28T14:10:27.957Z,1.30
2019-01-28T14:12:56.372Z,1.30
2019-01-28T14:15:36.530Z,1.67
2019-01-28T14:18:06.523Z,1.40
2019-01-28T14:20:37.611Z,1.00
2019-01-28T14:23:06.051Z,2.00
2019-01-28T14:25:34.319Z,1.23
2019-01-28T14:28:05.592Z,1.67
2019-01-28T14:30:36.281Z,1.80
2019-01-28T14:33:07.189Z,1.23
2019-01-28T14:35:35.684Z,1.17
2019-01-28T14:38:06.367Z,0.72
2019-01-28T14:40:34.816Z,1.52
2019-01-28T14:43:03.202Z,1.07
2019-01-28T14:45:31.485Z,1.50
2019-01-28T14:47:59.864Z,1.00
2019-01-28T14:50:31.758Z,1.80
2019-01-28T14:53:00.048Z,1.33
2019-01-28T14:55:28.354Z,1.60
2019-01-28T14:57:56.892Z,1.10
2019-01-28T15:00:40.136Z,1.23
2019-01-28T15:03:08.426Z,1.73
2019-01-28T15:05:36.784Z,1.73
2019-01-28T15:08:06.315Z,1.70
2019-01-28T15:10:34.660Z,1.70
2019-01-28T15:13:03.059Z,2.07
2019-01-28T15:15:36.158Z,1.60
2019-01-28T15:18:06.492Z,2.17
2019-01-28T15:20:34.843Z,2.73
2019-01-28T15:23:03.264Z,2.00
2019-01-28T15:25:31.715Z,2.10
2019-01-28T15:28:00.275Z,2.40
2019-01-28T15:30:32.352Z,2.97
2019-01-28T15:33:02.707Z,2.17
2019-01-28T15:35:31.290Z,2.33
2019-01-28T15:37:59.907Z,2.00
2019-01-28T15:40:32.243Z,1.80
2019-01-28T15:43:01.243Z,2.57
2019-01-28T15:45:35.669Z,2.23
2019-01-28T15:48:05.810Z,2.37
2019-01-28T15:50:34.267Z,2.30
2019-01-28T15:53:02.625Z,2.50
2019-01-28T15:55:39.816Z,1.63
2019-01-28T15:58:09.492Z,2.20
2019-01-28T16:00:41.461Z,1.90
2019-01-28T16:03:10.093Z,2.30
2019-01-28T16:05:38.606Z,1.30
2019-01-28T16:08:07.634Z,1.80
2019-01-28T16:10:35.983Z,2.37
2019-01-28T16:13:04.602Z,1.90
2019-01-28T16:15:35.860Z,1.50
2019-01-28T16:18:08.931Z,1.62
2019-01-28T16:20:36.563Z,1.67
2019-01-28T16:23:06.198Z,1.43
2019-01-28T16:25:34.738Z,1.30
2019-01-28T16:28:06.176Z,1.97
2019-01-28T16:30:44.262Z,1.43
2019-01-28T16:33:18.955Z,1.23
2019-01-28T16:35:48.415Z,1.83
2019-01-28T16:38:17.024Z,1.12
2019-01-28T16:40:45.549Z,1.80
2019-01-28T16:43:14.092Z,2.60
2019-01-28T16:45:43.441Z,1.23
2019-01-28T16:48:11.890Z,2.00
2019-01-28T16:50:41.108Z,2.00
2019-01-28T16:53:09.643Z,1.42
2019-01-28T16:55:40.218Z,1.90
2019-01-28T16:58:11.455Z,1.93
2019-01-28T17:00:55.553Z,2.20
2019-01-28T17:03:24.027Z,1.93
2019-01-28T17:05:54.218Z,1.87
2019-01-28T17:08:22.612Z,1.73
2019-01-28T17:10:50.934Z,2.30
2019-01-28T17:13:20.020Z,2.00
2019-01-28T17:15:48.373Z,2.00
2019-01-28T17:18:17.098Z,1.80
2019-01-28T17:20:52.767Z,1.70
2019-01-28T17:23:21.615Z,2.23
2019-01-28T17:25:50.108Z,1.40
2019-01-28T17:28:22.676Z,1.80
2019-01-28T17:30:53.918Z,1.80
2019-01-28T17:33:22.535Z,2.40
2019-01-28T17:35:52.215Z,1.73
2019-01-28T17:38:23.365Z,2.13
2019-01-28T17:40:51.858Z,1.50
2019-01-28T17:43:24.381Z,2.53
2019-01-28T17:46:00.846Z,1.40
2019-01-28T17:48:29.821Z,2.05
2019-01-28T17:50:58.378Z,1.90
2019-01-28T17:53:26.958Z,2.00
2019-01-28T17:55:55.768Z,1.30
2019-01-28T17:58:36.931Z,1.23
2019-01-28T18:01:08.006Z,2.10
2019-01-28T18:03:37.179Z,1.87
2019-01-28T18:06:12.847Z,1.50
2019-01-28T18:08:43.862Z,2.30
2019-01-28T18:11:13.513Z,1.90
2019-01-28T18:13:42.745Z,1.30
2019-01-28T18:16:12.146Z,2.10
2019-01-28T18:18:40.600Z,2.10
2019-01-28T18:21:16.456Z,2.20
2019-01-28T18:23:45.806Z,1.57
2019-01-28T18:26:14.220Z,1.40
2019-01-28T18:28:42.572Z,2.03
2019-01-28T18:31:10.934Z,1.40
2019-01-28T18:33:39.327Z,1.67
2019-01-28T18:36:07.738Z,1.70
2019-01-28T18:38:36.102Z,1.40
2019-01-28T18:41:05.310Z,1.47
2019-01-28T18:43:35.383Z,1.73
2019-01-28T18:46:06.143Z,1.23
2019-01-28T18:48:34.609Z,1.23
2019-01-28T18:51:02.959Z,1.70
2019-01-28T18:53:31.226Z,1.10
2019-01-28T18:55:59.530Z,2.17
2019-01-28T18:58:27.959Z,1.17
2019-01-28T19:00:56.301Z,1.40
2019-01-28T19:03:24.774Z,1.23
2019-01-28T19:05:54.874Z,1.70
2019-01-28T19:08:24.914Z,1.87
2019-01-28T19:10:54.856Z,1.23
2019-01-28T19:13:27.518Z,1.10
2019-01-28T19:16:00.334Z,1.57
2019-01-28T19:18:30.274Z,1.50
2019-01-28T19:21:07.498Z,1.07
2019-01-28T19:23:30.237Z,0.90
2019-01-28T19:25:58.624Z,1.50
2019-01-28T19:28:26.964Z,1.50
2019-01-28T19:30:55.372Z,1.23
2019-01-28T19:33:23.713Z,1.50
2019-01-28T19:35:52.118Z,1.20
2019-01-28T19:38:22.345Z,1.70
2019-01-28T19:40:50.896Z,1.57
2019-01-28T19:43:19.160Z,1.60
2019-01-28T19:45:47.490Z,1.90
2019-01-28T19:48:15.892Z,1.25
2019-01-28T19:50:44.451Z,1.93
2019-01-28T19:53:12.970Z,1.10
2019-01-28T19:55:41.395Z,1.40
2019-01-28T19:58:09.847Z,1.20
2019-01-28T20:00:38.328Z,1.10
2019-01-28T20:03:08.207Z,1.10
2019-01-28T20:05:36.638Z,0.90
2019-01-28T20:08:05.024Z,0.87
2019-01-28T20:10:33.470Z,1.43
2019-01-28T20:13:01.894Z,0.80
2019-01-28T20:15:30.403Z,0.70
2019-01-28T20:17:58.899Z,0.90
2019-01-28T20:20:27.270Z,1.20
2019-01-28T20:22:59.197Z,1.00
2019-01-28T20:25:27.517Z,1.17
2019-01-28T20:27:55.939Z,1.40
2019-01-28T20:30:26.946Z,0.65
2019-01-28T20:32:55.310Z,1.15
2019-01-28T20:35:23.603Z,0.30
2019-01-28T20:37:52.124Z,1.07
2019-01-28T20:40:21.293Z,1.20
2019-01-28T20:42:50.097Z,1.03
2019-01-28T20:45:27.731Z,1.32
2019-01-28T20:47:58.437Z,1.40
2019-01-28T20:50:37.365Z,1.00
2019-01-28T20:53:06.456Z,1.52
2019-01-28T20:55:34.940Z,1.00
2019-01-28T20:58:03.414Z,1.03
2019-01-28T21:00:31.828Z,1.27
2019-01-28T21:03:00.689Z,1.90
2019-01-28T21:05:32.575Z,1.00
2019-01-28T21:08:01.517Z,1.40
2019-01-28T21:10:30.637Z,1.33
2019-01-28T21:12:59.073Z,1.57
2019-01-28T21:15:27.391Z,1.22
2019-01-28T21:17:55.684Z,0.90
2019-01-28T21:20:24.356Z,1.00
2019-01-28T21:22:52.805Z,1.17
2019-01-28T21:25:23.951Z,0.62
2019-01-28T21:27:52.811Z,1.60
2019-01-28T21:30:24.263Z,1.77
2019-01-28T21:32:53.267Z,1.70
2019-01-28T21:35:23.680Z,1.33
2019-01-28T21:38:00.339Z,1.00
2019-01-28T21:40:23.982Z,0.97
2019-01-28T21:42:52.442Z,1.20
2019-01-28T21:45:21.075Z,2.58
2019-01-28T21:47:55.996Z,0.90
2019-01-28T21:50:27.226Z,0.93
2019-01-28T21:52:55.692Z,0.72
2019-01-28T21:55:24.163Z,0.80
2019-01-28T21:57:54.994Z,1.70
2019-01-28T22:00:26.295Z,1.90
2019-01-28T22:02:56.579Z,1.17
2019-01-28T22:05:26.521Z,0.87
2019-01-28T22:07:56.582Z,1.17
2019-01-28T22:10:27.080Z,1.00
2019-01-28T22:12:56.630Z,0.80
2019-01-28T22:15:24.957Z,0.83
2019-01-28T22:17:53.397Z,1.47
2019-01-28T22:20:21.821Z,1.10
2019-01-28T22:22:50.416Z,0.63
2019-01-28T22:25:18.920Z,0.70
2019-01-28T22:27:47.298Z,1.17
2019-01-28T22:30:21.370Z,1.07
2019-01-28T22:32:49.899Z,1.00
2019-01-28T22:35:18.295Z,0.90
2019-01-28T22:37:46.708Z,1.00
2019-01-28T22:40:18.333Z,0.80
2019-01-28T22:42:46.758Z,1.80
2019-01-28T22:45:20.434Z,1.57
2019-01-28T22:47:48.822Z,1.20
2019-01-28T22:50:18.642Z,0.60
2019-01-28T22:52:46.937Z,0.70
2019-01-28T22:55:18.473Z,1.43
2019-01-28T22:57:46.848Z,2.23
2019-01-28T23:00:22.779Z,1.27
2019-01-28T23:02:51.091Z,2.07
2019-01-28T23:05:19.441Z,0.77
2019-01-28T23:07:47.851Z,1.37
2019-01-28T23:10:16.206Z,1.70
2019-01-28T23:12:44.585Z,1.22
2019-01-28T23:15:12.957Z,1.90
2019-01-28T23:17:41.341Z,1.50
2019-01-28T23:20:09.784Z,1.10
2019-01-28T23:22:38.144Z,1.63
2019-01-28T23:25:06.926Z,1.10
2019-01-28T23:27:35.230Z,1.23
2019-01-28T23:30:07.421Z,1.02
2019-01-28T23:32:35.725Z,1.47
2019-01-28T23:35:05.824Z,1.03
2019-01-28T23:37:34.306Z,1.40
2019-01-28T23:40:02.634Z,0.80
2019-01-28T23:42:31.080Z,1.30
2019-01-28T23:44:59.374Z,1.50
2019-01-28T23:47:27.782Z,1.60
2019-01-28T23:49:56.056Z,0.90
2019-01-28T23:52:25.205Z,1.10
2019-01-28T23:54:54.096Z,1.00
2019-01-28T23:57:22.382Z,1.45
2019-01-28T23:59:50.743Z,0.90
